createdAt,value
2023-06-17T00:01:06.641Z,100760.75
2023-06-17T00:03:33.493Z,100763.31
2023-06-17T00:06:00.125Z,100761.63
2023-06-17T00:08:26.629Z,100758.19
2023-06-17T00:10:53.089Z,100754.75
2023-06-17T00:13:19.610Z,100753.91
2023-06-17T00:15:47.435Z,100751.31
2023-06-17T00:18:14.765Z,100747.03
2023-06-17T00:20:41.407Z,100749.59
2023-06-17T00:23:09.085Z,100756.50
2023-06-17T00:25:35.809Z,100754.88
2023-06-17T00:28:02.258Z,100749.69
2023-06-17T00:30:28.713Z,100753.13
2023-06-17T00:32:55.762Z,100754.88
2023-06-17T00:35:22.676Z,100754.03
2023-06-17T00:37:49.483Z,100754.06
2023-06-17T00:40:16.058Z,100755.81
2023-06-17T00:42:42.629Z,100751.47
2023-06-17T00:45:09.501Z,100740.41
2023-06-17T00:47:36.171Z,100739.56
2023-06-17T00:50:03.985Z,100739.56
2023-06-17T00:52:42.013Z,100736.16
2023-06-17T00:55:11.629Z,100737.84
2023-06-17T00:57:39.566Z,100733.56
2023-06-17T01:00:07.980Z,100738.72
2023-06-17T01:02:34.840Z,100734.38
2023-06-17T01:05:01.611Z,100737.81
2023-06-17T01:08:07.333Z,100737.84
2023-06-17T01:10:33.792Z,100731.00
2023-06-17T01:13:04.414Z,100729.25
2023-06-17T01:15:33.905Z,100730.09
2023-06-17T01:18:01.469Z,100723.25
2023-06-17T01:20:28.793Z,100725.81
2023-06-17T01:22:56.875Z,100724.09
2023-06-17T01:25:23.832Z,100727.53
2023-06-17T01:27:50.572Z,100720.69
2023-06-17T01:30:17.299Z,100721.59
2023-06-17T01:32:43.942Z,100721.59
2023-06-17T01:35:19.557Z,100721.53
2023-06-17T01:37:55.412Z,100731.81
2023-06-17T01:40:24.551Z,100727.53
2023-06-17T01:42:54.122Z,100729.25
2023-06-17T01:45:22.042Z,100724.97
2023-06-17T01:47:48.952Z,100726.69
2023-06-17T01:50:15.496Z,100728.47
2023-06-17T01:52:42.511Z,100728.50
2023-06-17T01:55:09.228Z,100725.03
2023-06-17T01:57:36.883Z,100730.16
2023-06-17T02:00:04.049Z,100725.03
2023-06-17T02:02:30.598Z,100724.19
2023-06-17T02:04:57.533Z,100726.78
2023-06-17T02:07:24.098Z,100725.94
2023-06-17T02:09:50.828Z,100725.94
2023-06-17T02:12:19.267Z,100726.78
2023-06-17T02:14:45.895Z,100725.06
2023-06-17T02:17:12.428Z,100721.72
2023-06-17T02:19:39.366Z,100720.84
2023-06-17T02:22:06.153Z,100720.88
2023-06-17T02:24:34.442Z,100724.28
2023-06-17T02:27:01.189Z,100716.56
2023-06-17T02:29:28.847Z,100720.00
2023-06-17T02:31:55.453Z,100714.03
2023-06-17T02:34:22.059Z,100713.19
2023-06-17T02:36:48.580Z,100711.44
2023-06-17T02:39:15.335Z,100711.47
2023-06-17T02:41:42.444Z,100707.19
2023-06-17T02:44:09.040Z,100704.59
2023-06-17T02:46:35.841Z,100702.03
2023-06-17T02:49:02.808Z,100708.03
2023-06-17T02:51:29.512Z,100711.47
2023-06-17T02:53:56.188Z,100706.31
2023-06-17T02:56:23.201Z,100705.44
2023-06-17T02:58:49.618Z,100708.88
2023-06-17T03:01:16.134Z,100703.69
2023-06-17T03:03:42.662Z,100713.94
2023-06-17T03:06:09.832Z,100716.56
2023-06-17T03:08:40.409Z,100707.13
2023-06-17T03:11:07.267Z,100710.53
2023-06-17T03:13:34.938Z,100707.97
2023-06-17T03:16:01.657Z,100710.56
2023-06-17T03:18:28.498Z,100715.72
2023-06-17T03:20:55.528Z,100710.53
2023-06-17T03:23:22.188Z,100712.22
2023-06-17T03:25:50.341Z,100713.94
2023-06-17T03:28:17.583Z,100713.13
2023-06-17T03:30:44.469Z,100708.78
2023-06-17T03:33:11.475Z,100711.34
2023-06-17T03:35:39.345Z,100711.28
2023-06-17T03:38:06.017Z,100714.72
2023-06-17T03:40:33.100Z,100712.19
2023-06-17T03:42:59.923Z,100713.03
2023-06-17T03:45:26.434Z,100709.56
2023-06-17T03:47:52.898Z,100708.66
2023-06-17T03:50:19.895Z,100718.97
2023-06-17T03:52:46.651Z,100717.19
2023-06-17T03:55:13.797Z,100721.47
2023-06-17T03:57:40.439Z,100718.03
2023-06-17T04:00:07.526Z,100717.97
2023-06-17T04:02:34.039Z,100722.25
2023-06-17T04:05:00.601Z,100723.94
2023-06-17T04:07:27.417Z,100727.34
2023-06-17T04:10:05.812Z,100729.00
2023-06-17T04:12:33.595Z,100729.78
2023-06-17T04:15:01.142Z,100724.66
2023-06-17T04:17:27.736Z,100737.59
2023-06-17T04:19:54.457Z,100724.69
2023-06-17T04:22:21.066Z,100726.41
2023-06-17T04:24:48.651Z,100727.22
2023-06-17T04:27:15.421Z,100730.69
2023-06-17T04:29:42.009Z,100726.41
2023-06-17T04:32:09.014Z,100728.13
2023-06-17T04:34:35.573Z,100734.03
2023-06-17T04:37:02.353Z,100732.38
2023-06-17T04:39:29.299Z,100728.84
2023-06-17T04:41:55.730Z,100731.41
2023-06-17T04:44:22.546Z,100727.97
2023-06-17T04:46:49.111Z,100733.91
2023-06-17T04:49:16.880Z,100736.47
2023-06-17T04:51:43.650Z,100740.72
2023-06-17T04:54:10.216Z,100738.97
2023-06-17T04:56:36.692Z,100737.13
2023-06-17T04:59:03.291Z,100739.66
2023-06-17T05:01:30.108Z,100736.16
2023-06-17T05:03:56.697Z,100740.31
2023-06-17T05:06:23.464Z,100736.03
2023-06-17T05:08:50.665Z,100743.59
2023-06-17T05:11:17.623Z,100740.22
2023-06-17T05:13:44.436Z,100743.63
2023-06-17T05:16:10.973Z,100740.19
2023-06-17T05:18:37.841Z,100737.63
2023-06-17T05:21:05.161Z,100742.78
2023-06-17T05:23:31.714Z,100742.78
2023-06-17T05:25:58.202Z,100736.72
2023-06-17T05:28:24.684Z,100735.78
2023-06-17T05:30:51.306Z,100740.88
2023-06-17T05:33:19.023Z,100745.00
2023-06-17T05:35:46.138Z,100739.88
2023-06-17T05:38:12.923Z,100747.50
2023-06-17T05:40:39.430Z,100744.13
2023-06-17T05:43:05.967Z,100746.81
2023-06-17T05:45:32.779Z,100743.16
2023-06-17T05:47:59.345Z,100750.03
2023-06-17T05:50:26.171Z,100750.81
2023-06-17T05:52:52.831Z,100747.25
2023-06-17T05:55:19.618Z,100747.25
2023-06-17T05:57:46.168Z,100746.56
2023-06-17T06:00:13.322Z,100746.50
2023-06-17T06:02:40.048Z,100747.22
2023-06-17T06:05:07.446Z,100748.97
2023-06-17T06:07:34.024Z,100750.47
2023-06-17T06:10:00.536Z,100745.16
2023-06-17T06:12:28.657Z,100756.28
2023-06-17T06:14:56.455Z,100757.03
2023-06-17T06:17:23.315Z,100753.41
2023-06-17T06:19:49.877Z,100755.88
2023-06-17T06:22:16.443Z,100756.78
2023-06-17T06:24:43.299Z,100750.50
2023-06-17T06:27:09.778Z,100758.84
2023-06-17T06:29:36.613Z,100757.97
2023-06-17T06:32:04.518Z,100757.25
2023-06-17T06:34:31.401Z,100760.75
2023-06-17T06:36:57.818Z,100762.41
2023-06-17T06:39:24.988Z,100761.44
2023-06-17T06:41:52.014Z,100763.84
2023-06-17T06:44:19.053Z,100769.78
2023-06-17T06:46:46.464Z,100766.94
2023-06-17T06:49:13.114Z,100765.25
2023-06-17T06:51:40.522Z,100772.25
2023-06-17T06:54:07.064Z,100766.13
2023-06-17T06:56:33.640Z,100771.38
2023-06-17T06:59:00.406Z,100773.06
2023-06-17T07:01:28.032Z,100772.06
2023-06-17T07:03:54.641Z,100767.03
2023-06-17T07:06:21.168Z,100771.38
2023-06-17T07:08:49.152Z,100768.72
2023-06-17T07:11:18.279Z,100772.44
2023-06-17T07:13:45.089Z,100775.06
2023-06-17T07:16:14.016Z,100769.03
2023-06-17T07:18:40.564Z,100773.31
2023-06-17T07:21:07.419Z,100776.50
2023-06-17T07:23:33.950Z,100770.44
2023-06-17T07:26:00.803Z,100767.03
2023-06-17T07:28:27.351Z,100771.31
2023-06-17T07:30:53.887Z,100772.13
2023-06-17T07:33:20.804Z,100785.13
2023-06-17T07:35:48.376Z,100783.34
2023-06-17T07:38:15.047Z,100784.41
2023-06-17T07:40:41.539Z,100787.75
2023-06-17T07:43:09.032Z,100793.69
2023-06-17T07:45:35.774Z,100788.53
2023-06-17T07:48:02.569Z,100786.75
2023-06-17T07:50:29.721Z,100784.09
2023-06-17T07:52:56.329Z,100785.88
2023-06-17T07:55:22.844Z,100788.59
2023-06-17T07:57:49.746Z,100793.72
2023-06-17T08:00:16.744Z,100792.13
2023-06-17T08:02:44.337Z,100786.88
2023-06-17T08:05:11.389Z,100792.03
2023-06-17T08:07:38.260Z,100793.69
2023-06-17T08:10:07.356Z,100791.06
2023-06-17T08:12:36.245Z,100789.22
2023-06-17T08:15:03.068Z,100796.75
2023-06-17T08:17:29.799Z,100794.34
2023-06-17T08:19:56.875Z,100795.22
2023-06-17T08:22:23.388Z,100796.81
2023-06-17T08:24:49.935Z,100799.34
2023-06-17T08:27:16.770Z,100790.56
2023-06-17T08:29:43.659Z,100796.31
2023-06-17T08:32:10.018Z,100804.00
2023-06-17T08:34:36.522Z,100800.56
2023-06-17T08:37:03.110Z,100810.72
2023-06-17T08:39:31.689Z,100803.19
2023-06-17T08:41:58.555Z,100803.25
2023-06-17T08:44:26.119Z,100808.97
2023-06-17T08:46:54.723Z,100809.44
2023-06-17T08:49:22.523Z,100809.25
2023-06-17T08:51:52.317Z,100802.19
2023-06-17T08:54:20.589Z,100804.31
2023-06-17T08:56:47.450Z,100802.69
2023-06-17T08:59:13.834Z,100804.16
2023-06-17T09:01:43.651Z,100802.94
2023-06-17T09:04:10.877Z,100806.59
2023-06-17T09:06:37.292Z,100810.91
2023-06-17T09:09:04.558Z,100805.66
2023-06-17T09:11:32.362Z,100814.25
2023-06-17T09:14:01.706Z,100810.00
2023-06-17T09:16:37.261Z,100818.50
2023-06-17T09:19:06.217Z,100823.97
2023-06-17T09:21:33.145Z,100822.31
2023-06-17T09:24:00.695Z,100822.94
2023-06-17T09:26:30.926Z,100818.47
2023-06-17T09:29:09.007Z,100818.06
2023-06-17T09:31:55.163Z,100815.31
2023-06-17T09:34:22.917Z,100822.28
2023-06-17T09:37:02.131Z,100819.38
2023-06-17T09:39:31.245Z,100817.63
2023-06-17T09:41:58.188Z,100817.66
2023-06-17T09:44:25.293Z,100818.63
2023-06-17T09:46:51.980Z,100815.69
2023-06-17T09:49:22.176Z,100822.25
2023-06-17T09:51:49.231Z,100813.94
2023-06-17T09:54:16.220Z,100826.41
2023-06-17T09:56:43.815Z,100817.06
2023-06-17T09:59:11.184Z,100821.34
2023-06-17T10:01:37.798Z,100819.69
2023-06-17T10:04:04.597Z,100818.09
2023-06-17T10:06:32.404Z,100810.81
2023-06-17T10:08:59.679Z,100812.59
2023-06-17T10:11:28.607Z,100819.72
2023-06-17T10:14:03.471Z,100813.47
2023-06-17T10:16:35.164Z,100812.16
2023-06-17T10:19:05.071Z,100817.00
2023-06-17T10:21:35.120Z,100804.44
2023-06-17T10:24:03.843Z,100807.53
2023-06-17T10:26:30.502Z,100802.91
2023-06-17T10:29:05.212Z,100801.31
2023-06-17T10:31:33.732Z,100798.28
2023-06-17T10:34:03.554Z,100796.03
2023-06-17T10:36:33.477Z,100791.31
2023-06-17T10:39:10.116Z,100796.97
2023-06-17T10:41:39.735Z,100795.72
2023-06-17T10:44:21.241Z,100801.75
2023-06-17T10:46:51.228Z,100792.88
2023-06-17T10:49:18.789Z,100794.09
2023-06-17T10:51:57.825Z,100781.06
2023-06-17T10:54:32.639Z,100787.72
2023-06-17T10:57:02.453Z,100786.31
2023-06-17T10:59:30.886Z,100775.09
2023-06-17T11:02:08.574Z,100781.81
2023-06-17T11:04:36.528Z,100772.09
2023-06-17T11:07:03.995Z,100776.25
2023-06-17T11:09:31.317Z,100764.09
2023-06-17T11:11:58.882Z,100763.41
2023-06-17T11:14:33.985Z,100754.44
2023-06-17T11:17:00.835Z,100757.28
2023-06-17T11:19:27.718Z,100758.03
2023-06-17T11:21:58.656Z,100746.63
2023-06-17T11:24:26.961Z,100750.47
2023-06-17T11:26:54.041Z,100743.34
2023-06-17T11:29:21.052Z,100737.78
2023-06-17T11:31:47.904Z,100735.69
2023-06-17T11:34:14.638Z,100729.03
2023-06-17T11:36:42.836Z,100736.03
2023-06-17T11:39:09.492Z,100738.13
2023-06-17T11:41:37.494Z,100733.31
2023-06-17T11:44:04.545Z,100741.16
2023-06-17T11:46:31.356Z,100736.53
2023-06-17T11:48:58.284Z,100738.19
2023-06-17T11:51:24.901Z,100738.22
2023-06-17T11:53:51.303Z,100738.34
2023-06-17T11:56:19.607Z,100750.53
2023-06-17T11:58:46.358Z,100757.31
2023-06-17T12:01:14.644Z,100755.13
2023-06-17T12:03:48.077Z,100752.81
2023-06-17T12:06:19.436Z,100755.59
2023-06-17T12:08:46.196Z,100760.19
2023-06-17T12:11:29.870Z,100754.38
2023-06-17T12:13:56.765Z,100756.72
2023-06-17T12:16:34.664Z,100759.81
2023-06-17T12:19:03.190Z,100772.88
2023-06-17T12:21:30.299Z,100765.84
2023-06-17T12:23:57.930Z,100766.94
2023-06-17T12:26:25.254Z,100775.72
2023-06-17T12:28:52.613Z,100774.78
2023-06-17T12:31:23.132Z,100770.00
2023-06-17T12:33:50.318Z,100775.22
2023-06-17T12:36:17.634Z,100775.06
2023-06-17T12:38:45.758Z,100773.66
2023-06-17T12:41:12.252Z,100776.91
2023-06-17T12:43:39.011Z,100774.63
2023-06-17T12:46:06.158Z,100768.13
2023-06-17T12:48:34.561Z,100772.28
2023-06-17T12:51:01.475Z,100767.81
2023-06-17T12:53:28.995Z,100763.69
2023-06-17T12:55:56.566Z,100766.22
2023-06-17T12:58:23.799Z,100764.75
2023-06-17T13:00:50.361Z,100771.13
2023-06-17T13:03:17.164Z,100773.22
2023-06-17T13:05:43.787Z,100772.69
2023-06-17T13:08:10.881Z,100775.81
2023-06-17T13:10:37.467Z,100781.97
2023-06-17T13:13:04.130Z,100768.03
2023-06-17T13:15:30.798Z,100770.44
2023-06-17T13:17:57.703Z,100770.44
2023-06-17T13:20:25.108Z,100778.56
2023-06-17T13:22:52.209Z,100779.34
2023-06-17T13:25:18.786Z,100767.63
2023-06-17T13:27:45.306Z,100766.22
2023-06-17T13:30:12.645Z,100760.88
2023-06-17T13:32:40.361Z,100767.41
2023-06-17T13:35:07.608Z,100753.91
2023-06-17T13:37:34.283Z,100753.06
2023-06-17T13:40:00.988Z,100742.97
2023-06-17T13:42:27.634Z,100736.00
2023-06-17T13:44:54.337Z,100737.63
2023-06-17T13:47:20.954Z,100728.53
2023-06-17T13:49:47.552Z,100738.84
2023-06-17T13:52:14.176Z,100747.19
2023-06-17T13:54:40.772Z,100742.16
2023-06-17T13:57:07.848Z,100742.72
2023-06-17T13:59:36.059Z,100741.06
2023-06-17T14:02:04.425Z,100734.94
2023-06-17T14:04:31.045Z,100738.38
2023-06-17T14:06:57.784Z,100730.72
2023-06-17T14:09:24.423Z,100732.72
2023-06-17T14:11:50.945Z,100735.31
2023-06-17T14:14:17.635Z,100733.22
2023-06-17T14:16:44.613Z,100733.94
2023-06-17T14:19:11.713Z,100731.88
2023-06-17T14:21:38.507Z,100736.75
2023-06-17T14:24:09.515Z,100732.47
2023-06-17T14:26:40.555Z,100729.22
2023-06-17T14:29:09.442Z,100721.91
2023-06-17T14:31:36.794Z,100723.41
2023-06-17T14:34:03.764Z,100723.81
2023-06-17T14:36:31.360Z,100727.59
2023-06-17T14:39:00.126Z,100727.91
2023-06-17T14:41:26.791Z,100726.91
2023-06-17T14:43:53.204Z,100729.09
2023-06-17T14:46:20.616Z,100729.63
2023-06-17T14:48:47.355Z,100730.75
2023-06-17T14:51:13.875Z,100732.84
2023-06-17T14:53:40.438Z,100740.06
2023-06-17T14:56:39.644Z,100740.06
2023-06-17T14:59:07.279Z,100736.31
2023-06-17T15:01:35.356Z,100728.63
2023-06-17T15:04:02.236Z,100728.19
2023-06-17T15:06:29.229Z,100730.16
2023-06-17T15:09:23.384Z,100730.44
2023-06-17T15:11:50.009Z,100738.19
2023-06-17T15:14:16.500Z,100729.53
2023-06-17T15:16:43.026Z,100732.56
2023-06-17T15:19:09.794Z,100734.13
2023-06-17T15:21:36.149Z,100735.69
2023-06-17T15:24:03.119Z,100738.78
2023-06-17T15:26:29.628Z,100736.53
2023-06-17T15:28:56.150Z,100741.84
2023-06-17T15:31:22.674Z,100726.22
2023-06-17T15:33:49.182Z,100741.31
2023-06-17T15:36:15.869Z,100736.34
2023-06-17T15:38:42.574Z,100740.72
2023-06-17T15:41:09.103Z,100742.63
2023-06-17T15:43:35.456Z,100746.03
2023-06-17T15:46:02.299Z,100741.25
2023-06-17T15:48:29.143Z,100739.63
2023-06-17T15:50:58.321Z,100743.09
2023-06-17T15:53:24.790Z,100747.78
2023-06-17T15:55:51.576Z,100741.38
2023-06-17T15:58:18.355Z,100744.31
2023-06-17T16:00:45.221Z,100741.25
2023-06-17T16:03:13.079Z,100747.53
2023-06-17T16:05:39.934Z,100743.72
2023-06-17T16:08:06.567Z,100740.41
2023-06-17T16:10:33.861Z,100742.47
2023-06-17T16:13:00.336Z,100746.09
2023-06-17T16:15:26.874Z,100738.16
2023-06-17T16:17:53.251Z,100740.38
2023-06-17T16:20:20.218Z,100741.31
2023-06-17T16:22:48.358Z,100735.84
2023-06-17T16:25:15.221Z,100736.47
2023-06-17T16:27:41.727Z,100742.91
2023-06-17T16:30:09.215Z,100749.84
2023-06-17T16:32:35.870Z,100746.03
2023-06-17T16:35:02.377Z,100753.66
2023-06-17T16:37:28.926Z,100756.13
2023-06-17T16:39:55.930Z,100756.63
2023-06-17T16:42:22.461Z,100754.59
2023-06-17T16:44:49.295Z,100753.34
2023-06-17T16:47:16.981Z,100750.78
2023-06-17T16:49:44.030Z,100748.50
2023-06-17T16:52:10.861Z,100758.47
2023-06-17T16:54:37.551Z,100752.41
2023-06-17T16:57:05.383Z,100754.78
2023-06-17T16:59:37.913Z,100750.09
2023-06-17T17:02:05.780Z,100749.22
2023-06-17T17:04:32.343Z,100751.22
2023-06-17T17:06:59.666Z,100749.09
2023-06-17T17:09:26.987Z,100746.63
2023-06-17T17:11:54.096Z,100747.06
2023-06-17T17:14:20.604Z,100757.53
2023-06-17T17:16:47.492Z,100744.78
2023-06-17T17:19:14.343Z,100754.31
2023-06-17T17:21:41.005Z,100744.28
2023-06-17T17:24:07.591Z,100749.09
2023-06-17T17:26:34.237Z,100740.16
2023-06-17T17:29:00.713Z,100743.22
2023-06-17T17:31:27.297Z,100742.47
2023-06-17T17:33:53.741Z,100747.34
2023-06-17T17:36:20.560Z,100743.59
2023-06-17T17:38:47.110Z,100743.34
2023-06-17T17:41:13.748Z,100737.09
2023-06-17T17:43:40.330Z,100738.91
2023-06-17T17:46:07.941Z,100745.13
2023-06-17T17:48:35.216Z,100742.00
2023-06-17T17:51:02.316Z,100743.81
2023-06-17T17:53:29.272Z,100750.88
2023-06-17T17:55:56.261Z,100761.44
2023-06-17T17:58:22.854Z,100757.63
2023-06-17T18:00:49.315Z,100764.53
2023-06-17T18:03:16.296Z,100761.50
2023-06-17T18:05:42.890Z,100767.75
2023-06-17T18:08:09.653Z,100761.16
2023-06-17T18:10:36.578Z,100765.69
2023-06-17T18:13:03.453Z,100764.38
2023-06-17T18:15:29.952Z,100767.19
2023-06-17T18:17:56.537Z,100761.53
2023-06-17T18:20:23.517Z,100758.28
2023-06-17T18:22:50.619Z,100758.44
2023-06-17T18:25:17.517Z,100761.25
2023-06-17T18:27:44.359Z,100766.69
2023-06-17T18:30:11.625Z,100762.88
2023-06-17T18:32:38.478Z,100768.38
2023-06-17T18:35:05.505Z,100765.22
2023-06-17T18:37:32.056Z,100770.63
2023-06-17T18:39:58.891Z,100758.00
2023-06-17T18:42:25.700Z,100764.44
2023-06-17T18:44:52.160Z,100770.56
2023-06-17T18:47:18.698Z,100771.50
2023-06-17T18:49:45.214Z,100767.44
2023-06-17T18:52:11.895Z,100759.91
2023-06-17T18:54:38.342Z,100763.78
2023-06-17T18:57:05.412Z,100761.53
2023-06-17T18:59:32.405Z,100757.59
2023-06-17T19:01:59.295Z,100759.53
2023-06-17T19:04:25.989Z,100766.91
2023-06-17T19:06:52.848Z,100771.38
2023-06-17T19:09:19.413Z,100768.84
2023-06-17T19:11:46.289Z,100769.28
2023-06-17T19:14:12.721Z,100761.06
2023-06-17T19:16:39.544Z,100758.50
2023-06-17T19:19:06.199Z,100766.56
2023-06-17T19:21:33.306Z,100760.69
2023-06-17T19:23:59.865Z,100766.06
2023-06-17T19:26:26.645Z,100759.47
2023-06-17T19:28:53.887Z,100760.78
2023-06-17T19:31:20.727Z,100758.34
2023-06-17T19:33:47.467Z,100766.22
2023-06-17T19:36:14.026Z,100761.25
2023-06-17T19:38:40.502Z,100760.69
2023-06-17T19:41:07.044Z,100763.25
2023-06-17T19:43:33.815Z,100770.19
2023-06-17T19:46:01.142Z,100775.59
2023-06-17T19:48:27.807Z,100775.13
2023-06-17T19:50:55.566Z,100768.47
2023-06-17T19:53:24.048Z,100774.78
2023-06-17T19:55:51.411Z,100782.63
2023-06-17T19:58:18.667Z,100785.31
2023-06-17T20:00:48.257Z,100787.22
2023-06-17T20:03:14.976Z,100790.81
2023-06-17T20:05:41.461Z,100789.28
2023-06-17T20:08:08.469Z,100797.91
2023-06-17T20:10:35.007Z,100798.88
2023-06-17T20:13:03.696Z,100789.63
2023-06-17T20:15:30.180Z,100797.56
2023-06-17T20:17:57.083Z,100799.44
2023-06-17T20:20:23.802Z,100794.19
2023-06-17T20:22:50.954Z,100796.84
2023-06-17T20:25:17.719Z,100796.91
2023-06-17T20:27:44.246Z,100807.47
2023-06-17T20:30:14.143Z,100807.50
2023-06-17T20:32:42.026Z,100812.81
2023-06-17T20:35:09.201Z,100807.81
2023-06-17T20:37:35.702Z,100810.53
2023-06-17T20:40:02.455Z,100815.00
2023-06-17T20:42:28.949Z,100818.34
2023-06-17T20:44:55.716Z,100824.47
2023-06-17T20:47:22.826Z,100821.97
2023-06-17T20:49:49.805Z,100823.00
2023-06-17T20:52:16.318Z,100828.25
2023-06-17T20:54:43.083Z,100826.66
2023-06-17T20:57:09.931Z,100834.47
2023-06-17T20:59:36.787Z,100842.31
2023-06-17T21:02:03.640Z,100832.94
2023-06-17T21:04:30.222Z,100821.84
2023-06-17T21:06:57.109Z,100826.19
2023-06-17T21:09:24.449Z,100826.31
2023-06-17T21:11:50.975Z,100826.34
2023-06-17T21:14:17.820Z,100830.72
2023-06-17T21:16:44.539Z,100836.81
2023-06-17T21:19:11.541Z,100829.13
2023-06-17T21:21:38.272Z,100835.19
2023-06-17T21:24:05.138Z,100842.97
2023-06-17T21:26:31.792Z,100843.03
2023-06-17T21:28:59.008Z,100843.09
2023-06-17T21:31:25.640Z,100841.38
2023-06-17T21:33:52.494Z,100838.91
2023-06-17T21:36:19.064Z,100834.69
2023-06-17T21:38:45.656Z,100834.78
2023-06-17T21:41:12.397Z,100837.41
2023-06-17T21:43:39.143Z,100840.84
2023-06-17T21:46:06.080Z,100843.56
2023-06-17T21:48:32.771Z,100845.31
2023-06-17T21:50:59.421Z,100841.09
2023-06-17T21:53:26.004Z,100832.59
2023-06-17T21:55:54.164Z,100837.00
2023-06-17T21:58:20.658Z,100832.69
2023-06-17T22:00:47.225Z,100839.59
2023-06-17T22:03:14.116Z,100839.66
2023-06-17T22:05:41.053Z,100841.44
2023-06-17T22:08:09.614Z,100836.31
2023-06-17T22:10:36.529Z,100836.31
2023-06-17T22:13:03.006Z,100844.06
2023-06-17T22:15:29.885Z,100838.91
2023-06-17T22:17:56.620Z,100836.34
2023-06-17T22:20:23.704Z,100836.41
2023-06-17T22:22:50.673Z,100830.41
2023-06-17T22:25:17.617Z,100845.16
2023-06-17T22:27:44.228Z,100837.44
2023-06-17T22:30:11.063Z,100843.53
2023-06-17T22:32:37.671Z,100840.97
2023-06-17T22:35:05.239Z,100827.22
2023-06-17T22:37:32.055Z,100828.13
2023-06-17T22:39:59.807Z,100829.06
2023-06-17T22:42:27.150Z,100829.94
2023-06-17T22:44:54.086Z,100825.69
2023-06-17T22:47:23.411Z,100822.34
2023-06-17T22:49:50.209Z,100824.06
2023-06-17T22:52:16.966Z,100830.09
2023-06-17T22:54:43.687Z,100828.47
2023-06-17T22:57:10.255Z,100826.78
2023-06-17T22:59:37.003Z,100824.22
2023-06-17T23:02:05.767Z,100817.34
2023-06-17T23:04:32.600Z,100825.09
2023-06-17T23:07:00.173Z,100815.72
2023-06-17T23:09:27.008Z,100816.59
2023-06-17T23:11:54.149Z,100820.97
2023-06-17T23:14:20.913Z,100822.72
2023-06-17T23:16:47.771Z,100821.03
2023-06-17T23:19:14.671Z,100821.03
2023-06-17T23:21:41.200Z,100823.66
2023-06-17T23:24:08.442Z,100821.94
2023-06-17T23:26:34.985Z,100823.69
2023-06-17T23:29:01.960Z,100817.69
2023-06-17T23:31:28.780Z,100815.16
2023-06-17T23:33:55.757Z,100812.63
2023-06-17T23:36:22.777Z,100811.78
2023-06-17T23:38:49.617Z,100805.78
2023-06-17T23:41:16.939Z,100813.56
2023-06-17T23:43:43.712Z,100818.72
2023-06-17T23:46:10.283Z,100818.75
2023-06-17T23:48:36.835Z,100815.31
2023-06-17T23:51:05.740Z,100802.50
2023-06-17T23:53:32.615Z,100804.25
2023-06-17T23:55:59.151Z,100797.41
2023-06-17T23:58:25.996Z,100801.69
